sensor_id;sensor_type;location;lat;lon;timestamp;pressure;altitude;pressure_sealevel;temperature;humidity
76637;BME280;65532;52.124;5.480;2024-02-26T00:00:24;100010.59;;;4.38;100.00
76637;BME280;65532;52.124;5.480;2024-02-26T00:02:51;100009.78;;;4.38;100.00
76637;BME280;65532;52.124;5.480;2024-02-26T00:05:18;100010.81;;;4.37;100.00
76637;BME280;65532;52.124;5.480;2024-02-26T00:07:44;100011.03;;;4.35;100.00
76637;BME280;65532;52.124;5.480;2024-02-26T00:10:11;100017.84;;;4.31;100.00
76637;BME280;65532;52.124;5.480;2024-02-26T00:12:38;100019.91;;;4.29;100.00
76637;BME280;65532;52.124;5.480;2024-02-26T00:15:06;100021.56;;;4.30;100.00
76637;BME280;65532;52.124;5.480;2024-02-26T00:17:33;100018.28;;;4.28;100.00
76637;BME280;65532;52.124;5.480;2024-02-26T00:20:01;100029.38;;;4.25;100.00
76637;BME280;65532;52.124;5.480;2024-02-26T00:22:28;100035.59;;;4.19;100.00
76637;BME280;65532;52.124;5.480;2024-02-26T00:24:55;100029.03;;;4.15;100.00
76637;BME280;65532;52.124;5.480;2024-02-26T00:27:21;100030.66;;;4.09;100.00
76637;BME280;65532;52.124;5.480;2024-02-26T00:29:48;100035.19;;;4.09;100.00
76637;BME280;65532;52.124;5.480;2024-02-26T00:32:14;100032.94;;;4.06;100.00
76637;BME280;65532;52.124;5.480;2024-02-26T00:34:41;100028.22;;;4.01;100.00
76637;BME280;65532;52.124;5.480;2024-02-26T00:37:07;100027.81;;;3.98;100.00
76637;BME280;65532;52.124;5.480;2024-02-26T00:39:34;100025.56;;;3.95;100.00
76637;BME280;65532;52.124;5.480;2024-02-26T00:42:00;100023.28;;;3.91;100.00
76637;BME280;65532;52.124;5.480;2024-02-26T00:44:27;100026.38;;;3.88;100.00
76637;BME280;65532;52.124;5.480;2024-02-26T00:46:53;100024.53;;;3.82;100.00
76637;BME280;65532;52.124;5.480;2024-02-26T00:49:20;100031.97;;;3.80;100.00
76637;BME280;65532;52.124;5.480;2024-02-26T00:51:46;100033.00;;;3.79;100.00
76637;BME280;65532;52.124;5.480;2024-02-26T00:54:13;100038.53;;;3.78;100.00
76637;BME280;65532;52.124;5.480;2024-02-26T00:56:40;100031.53;;;3.70;100.00
76637;BME280;65532;52.124;5.480;2024-02-26T00:59:06;100040.59;;;3.69;100.00
76637;BME280;65532;52.124;5.480;2024-02-26T01:01:33;100039.56;;;3.70;100.00
76637;BME280;65532;52.124;5.480;2024-02-26T01:03:59;100036.88;;;3.70;100.00
76637;BME280;65532;52.124;5.480;2024-02-26T01:06:26;100039.34;;;3.72;100.00
76637;BME280;65532;52.124;5.480;2024-02-26T01:08:53;100026.19;;;3.70;100.00
76637;BME280;65532;52.124;5.480;2024-02-26T01:11:19;100034.44;;;3.69;100.00
76637;BME280;65532;52.124;5.480;2024-02-26T01:13:46;100026.41;;;3.69;100.00
76637;BME280;65532;52.124;5.480;2024-02-26T01:16:12;100019.81;;;3.71;100.00
76637;BME280;65532;52.124;5.480;2024-02-26T01:18:39;100030.69;;;3.76;100.00
76637;BME280;65532;52.124;5.480;2024-02-26T01:21:06;100024.53;;;3.82;100.00
76637;BME280;65532;52.124;5.480;2024-02-26T01:23:35;100018.75;;;3.85;100.00
76637;BME280;65532;52.124;5.480;2024-02-26T01:26:02;100032.56;;;3.82;100.00
76637;BME280;65532;52.124;5.480;2024-02-26T01:28:29;100020.41;;;3.86;100.00
76637;BME280;65532;52.124;5.480;2024-02-26T01:30:55;100014.63;;;3.89;100.00
76637;BME280;65532;52.124;5.480;2024-02-26T01:33:22;100010.91;;;3.90;100.00
76637;BME280;65532;52.124;5.480;2024-02-26T01:35:48;100021.41;;;3.92;100.00
76637;BME280;65532;52.124;5.480;2024-02-26T01:38:15;100016.88;;;3.92;100.00
76637;BME280;65532;52.124;5.480;2024-02-26T01:40:41;100006.38;;;3.91;100.00
76637;BME280;65532;52.124;5.480;2024-02-26T01:43:08;100017.91;;;3.91;100.00
76637;BME280;65532;52.124;5.480;2024-02-26T01:45:35;100022.88;;;3.95;100.00
76637;BME280;65532;52.124;5.480;2024-02-26T01:48:01;100014.63;;;3.96;100.00
76637;BME280;65532;52.124;5.480;2024-02-26T01:50:28;100016.91;;;3.99;100.00
76637;BME280;65532;52.124;5.480;2024-02-26T01:52:55;100020.41;;;4.00;100.00
76637;BME280;65532;52.124;5.480;2024-02-26T01:55:23;100028.22;;;4.01;100.00
76637;BME280;65532;52.124;5.480;2024-02-26T01:57:51;100024.91;;;4.06;100.00
76637;BME280;65532;52.124;5.480;2024-02-26T02:00:19;100033.53;;;4.08;100.00
76637;BME280;65532;52.124;5.480;2024-02-26T02:02:47;100036.84;;;4.10;100.00
76637;BME280;65532;52.124;5.480;2024-02-26T02:05:16;100029.44;;;4.12;100.00
76637;BME280;65532;52.124;5.480;2024-02-26T02:07:45;100034.38;;;4.15;100.00
76637;BME280;65532;52.124;5.480;2024-02-26T02:10:13;100041.38;;;4.16;100.00
76637;BME280;65532;52.124;5.480;2024-02-26T02:12:40;100039.31;;;4.18;100.00
76637;BME280;65532;52.124;5.480;2024-02-26T02:15:07;100034.97;;;4.17;100.00
76637;BME280;65532;52.124;5.480;2024-02-26T02:17:34;100031.28;;;4.18;100.00
76637;BME280;65532;52.124;5.480;2024-02-26T02:20:00;100039.91;;;4.20;100.00
76637;BME280;65532;52.124;5.480;2024-02-26T02:22:28;100043.41;;;4.20;100.00
76637;BME280;65532;52.124;5.480;2024-02-26T02:24:54;100050.63;;;4.20;100.00
76637;BME280;65532;52.124;5.480;2024-02-26T02:27:21;100054.13;;;4.20;100.00
76637;BME280;65532;52.124;5.480;2024-02-26T02:29:48;100054.94;;;4.21;100.00
76637;BME280;65532;52.124;5.480;2024-02-26T02:32:16;100053.72;;;4.24;100.00
76637;BME280;65532;52.124;5.480;2024-02-26T02:34:44;100054.53;;;4.24;100.00
76637;BME280;65532;52.124;5.480;2024-02-26T02:37:10;100052.66;;;4.25;100.00
76637;BME280;65532;52.124;5.480;2024-02-26T02:39:37;100056.19;;;4.25;100.00
76637;BME280;65532;52.124;5.480;2024-02-26T02:42:04;100053.50;;;4.25;100.00
76637;BME280;65532;52.124;5.480;2024-02-26T02:44:31;100064.84;;;4.27;100.00
76637;BME280;65532;52.124;5.480;2024-02-26T02:46:58;100071.44;;;4.31;100.00
76637;BME280;65532;52.124;5.480;2024-02-26T02:49:24;100074.72;;;4.33;100.00
76637;BME280;65532;52.124;5.480;2024-02-26T02:51:51;100075.53;;;4.34;100.00
76637;BME280;65532;52.124;5.480;2024-02-26T02:54:20;100074.28;;;4.36;100.00
76637;BME280;65532;52.124;5.480;2024-02-26T02:56:46;100076.97;;;4.36;100.00
76637;BME280;65532;52.124;5.480;2024-02-26T02:59:13;100064.81;;;4.34;100.00
76637;BME280;65532;52.124;5.480;2024-02-26T03:01:39;100090.38;;;4.36;100.00
76637;BME280;65532;52.124;5.480;2024-02-26T03:04:06;100087.91;;;4.35;100.00
76637;BME280;65532;52.124;5.480;2024-02-26T03:06:32;100095.34;;;4.33;100.00
76637;BME280;65532;52.124;5.480;2024-02-26T03:08:59;100084.81;;;4.31;100.00
76637;BME280;65532;52.124;5.480;2024-02-26T03:11:27;100092.47;;;4.28;100.00
76637;BME280;65532;52.124;5.480;2024-02-26T03:13:53;100100.72;;;4.26;100.00
76637;BME280;65532;52.124;5.480;2024-02-26T03:16:20;100108.09;;;4.24;100.00
76637;BME280;65532;52.124;5.480;2024-02-26T03:18:46;100097.81;;;4.21;100.00
76637;BME280;65532;52.124;5.480;2024-02-26T03:21:13;100114.31;;;4.18;100.00
76637;BME280;65532;52.124;5.480;2024-02-26T03:23:40;100115.34;;;4.17;100.00
76637;BME280;65532;52.124;5.480;2024-02-26T03:26:06;100117.19;;;4.16;100.00
76637;BME280;65532;52.124;5.480;2024-02-26T03:28:33;100116.59;;;4.14;100.00
76637;BME280;65532;52.124;5.480;2024-02-26T03:31:01;100122.16;;;4.13;100.00
76637;BME280;65532;52.124;5.480;2024-02-26T03:33:28;100118.88;;;4.11;100.00
76637;BME280;65532;52.124;5.480;2024-02-26T03:35:55;100125.22;;;4.10;100.00
76637;BME280;65532;52.124;5.480;2024-02-26T03:38:22;100128.94;;;4.09;100.00
76637;BME280;65532;52.124;5.480;2024-02-26T03:40:48;100133.66;;;4.07;100.00
76637;BME280;65532;52.124;5.480;2024-02-26T03:43:16;100133.66;;;4.07;100.00
76637;BME280;65532;52.124;5.480;2024-02-26T03:45:43;100129.34;;;4.06;100.00
76637;BME280;65532;52.124;5.480;2024-02-26T03:48:09;100127.09;;;4.03;100.00
76637;BME280;65532;52.124;5.480;2024-02-26T03:50:36;100136.97;;;4.02;100.00
76637;BME280;65532;52.124;5.480;2024-02-26T03:53:02;100138.00;;;4.01;100.00
76637;BME280;65532;52.124;5.480;2024-02-26T03:55:29;100129.16;;;4.01;100.00
76637;BME280;65532;52.124;5.480;2024-02-26T03:57:55;100137.19;;;4.01;100.00
76637;BME280;65532;52.124;5.480;2024-02-26T04:00:22;100136.38;;;4.00;100.00
76637;BME280;65532;52.124;5.480;2024-02-26T04:02:49;100131.84;;;4.01;100.00
76637;BME280;65532;52.124;5.480;2024-02-26T04:05:16;100131.00;;;4.00;100.00
76637;BME280;65532;52.124;5.480;2024-02-26T04:07:42;100131.00;;;4.00;100.00
76637;BME280;65532;52.124;5.480;2024-02-26T04:10:09;100140.69;;;4.01;100.00
76637;BME280;65532;52.124;5.480;2024-02-26T04:12:39;100144.41;;;4.00;100.00
76637;BME280;65532;52.124;5.480;2024-02-26T04:15:09;100142.53;;;4.01;100.00
76637;BME280;65532;52.124;5.480;2024-02-26T04:17:37;100144.19;;;4.02;100.00
76637;BME280;65532;52.124;5.480;2024-02-26T04:20:04;100150.38;;;4.02;100.00
76637;BME280;65532;52.124;5.480;2024-02-26T04:22:32;100150.97;;;4.04;100.00
76637;BME280;65532;52.124;5.480;2024-02-26T04:24:59;100149.13;;;4.05;100.00
76637;BME280;65532;52.124;5.480;2024-02-26T04:27:25;100153.44;;;4.06;100.00
76637;BME280;65532;52.124;5.480;2024-02-26T04:29:52;100155.09;;;4.07;100.00
76637;BME280;65532;52.124;5.480;2024-02-26T04:32:18;100159.41;;;4.08;100.00
76637;BME280;65532;52.124;5.480;2024-02-26T04:34:45;100156.75;;;4.08;100.00
76637;BME280;65532;52.124;5.480;2024-02-26T04:37:11;100162.09;;;4.08;100.00
76637;BME280;65532;52.124;5.480;2024-02-26T04:39:38;100169.09;;;4.09;100.00
76637;BME280;65532;52.124;5.480;2024-02-26T04:42:05;100164.41;;;4.11;100.00
76637;BME280;65532;52.124;5.480;2024-02-26T04:44:31;100172.00;;;4.14;100.00
76637;BME280;65532;52.124;5.480;2024-02-26T04:46:58;100169.94;;;4.16;100.00
76637;BME280;65532;52.124;5.480;2024-02-26T04:49:24;100176.13;;;4.16;100.00
76637;BME280;65532;52.124;5.480;2024-02-26T04:51:51;100170.78;;;4.16;100.00
76637;BME280;65532;52.124;5.480;2024-02-26T04:54:17;100175.31;;;4.16;100.00
76637;BME280;65532;52.124;5.480;2024-02-26T04:56:44;100175.91;;;4.18;100.00
76637;BME280;65532;52.124;5.480;2024-02-26T04:59:11;100174.88;;;4.19;100.00
76637;BME280;65532;52.124;5.480;2024-02-26T05:01:37;100166.84;;;4.19;100.00
76637;BME280;65532;52.124;5.480;2024-02-26T05:04:04;100168.28;;;4.21;100.00
76637;BME280;65532;52.124;5.480;2024-02-26T05:06:30;100170.75;;;4.23;100.00
76637;BME280;65532;52.124;5.480;2024-02-26T05:08:57;100181.47;;;4.23;100.00
76637;BME280;65532;52.124;5.480;2024-02-26T05:11:24;100179.00;;;4.21;100.00
76637;BME280;65532;52.124;5.480;2024-02-26T05:13:50;100183.94;;;4.25;100.00
76637;BME280;65532;52.124;5.480;2024-02-26T05:16:17;100186.44;;;4.26;100.00
76637;BME280;65532;52.124;5.480;2024-02-26T05:18:43;100186.44;;;4.26;100.00
76637;BME280;65532;52.124;5.480;2024-02-26T05:21:10;100183.94;;;4.25;100.00
76637;BME280;65532;52.124;5.480;2024-02-26T05:23:37;100186.00;;;4.22;100.00
76637;BME280;65532;52.124;5.480;2024-02-26T05:26:03;100190.34;;;4.24;100.00
76637;BME280;65532;52.124;5.480;2024-02-26T05:28:30;100191.38;;;4.22;100.00
76637;BME280;65532;52.124;5.480;2024-02-26T05:30:56;100192.19;;;4.23;100.00
76637;BME280;65532;52.124;5.480;2024-02-26T05:33:23;100192.19;;;4.23;100.00
76637;BME280;65532;52.124;5.480;2024-02-26T05:35:50;100196.50;;;4.24;100.00
76637;BME280;65532;52.124;5.480;2024-02-26T05:38:16;100187.66;;;4.24;100.00
76637;BME280;65532;52.124;5.480;2024-02-26T05:40:43;100194.25;;;4.21;100.00
76637;BME280;65532;52.124;5.480;2024-02-26T05:43:09;100200.22;;;4.23;100.00
76637;BME280;65532;52.124;5.480;2024-02-26T05:45:36;100203.72;;;4.24;100.00
76637;BME280;65532;52.124;5.480;2024-02-26T05:48:02;100220.63;;;4.24;100.00
76637;BME280;65532;52.124;5.480;2024-02-26T05:50:29;100207.66;;;4.21;100.00
76637;BME280;65532;52.124;5.480;2024-02-26T05:52:56;100219.38;;;4.20;100.00
76637;BME280;65532;52.124;5.480;2024-02-26T05:55:22;100214.03;;;4.20;100.00
76637;BME280;65532;52.124;5.480;2024-02-26T05:57:49;100216.72;;;4.20;100.00
76637;BME280;65532;52.124;5.480;2024-02-26T06:00:16;100217.75;;;4.19;100.00
76637;BME280;65532;52.124;5.480;2024-02-26T06:02:43;100223.09;;;4.19;100.00
76637;BME280;65532;52.124;5.480;2024-02-26T06:05:09;100233.81;;;4.19;100.00
76637;BME280;65532;52.124;5.480;2024-02-26T06:07:36;100227.44;;;4.20;100.00
76637;BME280;65532;52.124;5.480;2024-02-26T06:10:02;100235.47;;;4.20;100.00
76637;BME280;65532;52.124;5.480;2024-02-26T06:12:31;100219.38;;;4.20;100.00
76637;BME280;65532;52.124;5.480;2024-02-26T06:14:57;100230.72;;;4.22;100.00
76637;BME280;65532;52.124;5.480;2024-02-26T06:17:27;100237.13;;;4.21;100.00
76637;BME280;65532;52.124;5.480;2024-02-26T06:19:54;100244.13;;;4.22;100.00
76637;BME280;65532;52.124;5.480;2024-02-26T06:22:21;100247.41;;;4.24;100.00
76637;BME280;65532;52.124;5.480;2024-02-26T06:24:47;100247.41;;;4.24;100.00
76637;BME280;65532;52.124;5.480;2024-02-26T06:27:13;100242.69;;;4.26;100.00
76637;BME280;65532;52.124;5.480;2024-02-26T06:29:40;100249.06;;;4.25;100.00
76637;BME280;65532;52.124;5.480;2024-02-26T06:32:07;100242.50;;;4.28;100.00
76637;BME280;65532;52.124;5.480;2024-02-26T06:34:33;100258.38;;;4.29;100.00
76637;BME280;65532;52.124;5.480;2024-02-26T06:37:00;100258.56;;;4.28;100.00
76637;BME280;65532;52.124;5.480;2024-02-26T06:39:26;100254.03;;;4.28;100.00
76637;BME280;65532;52.124;5.480;2024-02-26T06:41:53;100259.41;;;4.28;100.00
76637;BME280;65532;52.124;5.480;2024-02-26T06:44:27;100257.75;;;4.27;100.00
76637;BME280;65532;52.124;5.480;2024-02-26T06:46:58;100264.75;;;4.28;100.00
76637;BME280;65532;52.124;5.480;2024-02-26T06:49:28;100272.38;;;4.31;100.00
76637;BME280;65532;52.124;5.480;2024-02-26T06:51:55;100281.44;;;4.30;100.00
76637;BME280;65532;52.124;5.480;2024-02-26T06:54:22;100265.97;;;4.32;100.00
76637;BME280;65532;52.124;5.480;2024-02-26T06:56:48;100278.34;;;4.33;100.00
76637;BME280;65532;52.124;5.480;2024-02-26T06:59:15;100286.19;;;4.35;100.00
76637;BME280;65532;52.124;5.480;2024-02-26T07:01:41;100284.94;;;4.37;100.00
76637;BME280;65532;52.124;5.480;2024-02-26T07:04:08;100287.41;;;4.39;100.00
76637;BME280;65532;52.124;5.480;2024-02-26T07:06:37;100291.53;;;4.41;100.00
76637;BME280;65532;52.124;5.480;2024-02-26T07:09:04;100296.50;;;4.44;100.00
76637;BME280;65532;52.124;5.480;2024-02-26T07:11:31;100300.63;;;4.47;100.00
76637;BME280;65532;52.124;5.480;2024-02-26T07:13:57;100303.09;;;4.48;100.00
76637;BME280;65532;52.124;5.480;2024-02-26T07:16:23;100304.75;;;4.49;100.00
76637;BME280;65532;52.124;5.480;2024-02-26T07:18:50;100308.88;;;4.52;100.00
76637;BME280;65532;52.124;5.480;2024-02-26T07:21:17;100312.16;;;4.54;100.00
76637;BME280;65532;52.124;5.480;2024-02-26T07:23:43;100319.19;;;4.55;100.00
76637;BME280;65532;52.124;5.480;2024-02-26T07:26:10;100316.28;;;4.57;100.00
76637;BME280;65532;52.124;5.480;2024-02-26T07:28:38;100315.28;;;4.58;100.00
76637;BME280;65532;52.124;5.480;2024-02-26T07:31:04;100322.47;;;4.57;100.00
76637;BME280;65532;52.124;5.480;2024-02-26T07:33:31;100329.31;;;4.60;100.00
76637;BME280;65532;52.124;5.480;2024-02-26T07:35:58;100330.34;;;4.59;100.00
76637;BME280;65532;52.124;5.480;2024-02-26T07:38:24;100319.63;;;4.59;100.00
76637;BME280;65532;52.124;5.480;2024-02-26T07:41:07;100334.06;;;4.58;100.00
76637;BME280;65532;52.124;5.480;2024-02-26T07:43:34;100338.56;;;4.57;100.00
76637;BME280;65532;52.124;5.480;2024-02-26T07:46:02;100330.09;;;4.54;100.00
76637;BME280;65532;52.124;5.480;2024-02-26T07:48:29;100333.63;;;4.54;100.00
76637;BME280;65532;52.124;5.480;2024-02-26T07:50:55;100339.78;;;4.55;100.00
76637;BME280;65532;52.124;5.480;2024-02-26T07:53:22;100350.53;;;4.55;100.00
76637;BME280;65532;52.124;5.480;2024-02-26T07:55:48;100351.56;;;4.54;100.00
76637;BME280;65532;52.124;5.480;2024-02-26T07:58:15;100354.22;;;4.54;100.00
76637;BME280;65532;52.124;5.480;2024-02-26T08:00:41;100361.44;;;4.53;100.00
76637;BME280;65532;52.124;5.480;2024-02-26T08:03:08;100357.75;;;4.54;100.00
76637;BME280;65532;52.124;5.480;2024-02-26T08:05:35;100362.06;;;4.55;100.00
76637;BME280;65532;52.124;5.480;2024-02-26T08:08:02;100360.22;;;4.56;100.00
76637;BME280;65532;52.124;5.480;2024-02-26T08:10:28;100373.22;;;4.59;100.00
76637;BME280;65532;52.124;5.480;2024-02-26T08:12:58;100371.38;;;4.59;100.00
76637;BME280;65532;52.124;5.480;2024-02-26T08:15:32;100374.88;;;4.60;100.00
76637;BME280;65532;52.124;5.480;2024-02-26T08:18:03;100382.50;;;4.63;100.00
76637;BME280;65532;52.124;5.480;2024-02-26T08:20:31;100380.66;;;4.63;100.00
76637;BME280;65532;52.124;5.480;2024-02-26T08:22:58;100386.63;;;4.65;100.00
76637;BME280;65532;52.124;5.480;2024-02-26T08:25:24;100390.13;;;4.66;100.00
76637;BME280;65532;52.124;5.480;2024-02-26T08:27:51;100390.13;;;4.66;100.00
76637;BME280;65532;52.124;5.480;2024-02-26T08:30:18;100384.56;;;4.67;100.00
76637;BME280;65532;52.124;5.480;2024-02-26T08:32:48;100389.53;;;4.64;100.00
76637;BME280;65532;52.124;5.480;2024-02-26T08:35:18;100393.84;;;4.65;100.00
76637;BME280;65532;52.124;5.480;2024-02-26T08:37:46;100394.69;;;4.65;100.00
76637;BME280;65532;52.124;5.480;2024-02-26T08:40:13;100405.00;;;4.62;100.00
76637;BME280;65532;52.124;5.480;2024-02-26T08:42:40;100410.97;;;4.64;100.00
76637;BME280;65532;52.124;5.480;2024-02-26T08:45:07;100400.44;;;4.62;100.00
76637;BME280;65532;52.124;5.480;2024-02-26T08:47:34;100409.31;;;4.63;100.00
76637;BME280;65532;52.124;5.480;2024-02-26T08:50:01;100414.69;;;4.63;100.00
76637;BME280;65532;52.124;5.480;2024-02-26T08:52:28;100414.88;;;4.61;100.00
76637;BME280;65532;52.124;5.480;2024-02-26T08:54:55;100418.81;;;4.65;100.00
76637;BME280;65532;52.124;5.480;2024-02-26T08:57:22;100428.09;;;4.63;100.00
76637;BME280;65532;52.124;5.480;2024-02-26T08:59:48;100424.56;;;4.62;100.00
76637;BME280;65532;52.124;5.480;2024-02-26T09:02:16;100430.75;;;4.63;100.00
76637;BME280;65532;52.124;5.480;2024-02-26T09:04:42;100430.16;;;4.61;100.00
76637;BME280;65532;52.124;5.480;2024-02-26T09:07:09;100433.66;;;4.61;100.00
76637;BME280;65532;52.124;5.480;2024-02-26T09:09:35;100432.22;;;4.59;100.00
76637;BME280;65532;52.124;5.480;2024-02-26T09:12:03;100442.28;;;4.57;100.00
76637;BME280;65532;52.124;5.480;2024-02-26T09:14:30;100437.94;;;4.56;100.00
76637;BME280;65532;52.124;5.480;2024-02-26T09:16:56;100433.63;;;4.55;100.00
76637;BME280;65532;52.124;5.480;2024-02-26T09:19:24;100447.25;;;4.60;100.00
76637;BME280;65532;52.124;5.480;2024-02-26T09:21:52;100442.94;;;4.59;100.00
76637;BME280;65532;52.124;5.480;2024-02-26T09:24:20;100453.66;;;4.59;100.00
76637;BME280;65532;52.124;5.480;2024-02-26T09:26:47;100446.44;;;4.59;100.00
76637;BME280;65532;52.124;5.480;2024-02-26T09:29:14;100454.06;;;4.62;100.00
76637;BME280;65532;52.124;5.480;2024-02-26T09:31:40;100457.78;;;4.61;100.00
76637;BME280;65532;52.124;5.480;2024-02-26T09:34:07;100468.91;;;4.65;100.00
76637;BME280;65532;52.124;5.480;2024-02-26T09:36:34;100469.94;;;4.64;100.00
76637;BME280;65532;52.124;5.480;2024-02-26T09:39:01;100480.47;;;4.65;100.00
76637;BME280;65532;52.124;5.480;2024-02-26T09:41:28;100478.41;;;4.67;100.00
76637;BME280;65532;52.124;5.480;2024-02-26T09:43:58;100469.34;;;4.68;100.00
76637;BME280;65532;52.124;5.480;2024-02-26T09:46:26;100486.88;;;4.71;100.00
76637;BME280;65532;52.124;5.480;2024-02-26T09:48:53;100487.91;;;4.70;100.00
76637;BME280;65532;52.124;5.480;2024-02-26T09:51:22;100483.78;;;4.67;100.00
76637;BME280;65532;52.124;5.480;2024-02-26T09:53:54;100483.78;;;4.67;100.00
76637;BME280;65532;52.124;5.480;2024-02-26T09:56:22;100491.19;;;4.65;100.00
76637;BME280;65532;52.124;5.480;2024-02-26T09:58:50;100489.97;;;4.68;100.00
76637;BME280;65532;52.124;5.480;2024-02-26T10:01:20;100492.22;;;4.71;100.00
76637;BME280;65532;52.124;5.480;2024-02-26T10:03:57;100489.16;;;4.74;100.00
76637;BME280;65532;52.124;5.480;2024-02-26T10:06:26;100498.66;;;4.76;100.00
76637;BME280;65532;52.124;5.480;2024-02-26T10:08:54;100495.53;;;4.73;100.00
76637;BME280;65532;52.124;5.480;2024-02-26T10:11:22;100514.31;;;4.73;100.00
76637;BME280;65532;52.124;5.480;2024-02-26T10:13:48;100520.13;;;4.76;100.00
76637;BME280;65532;52.124;5.480;2024-02-26T10:16:16;100519.28;;;4.76;100.00
76637;BME280;65532;52.124;5.480;2024-02-26T10:18:49;100528.78;;;4.78;100.00
76637;BME280;65532;52.124;5.480;2024-02-26T10:21:25;100531.25;;;4.80;100.00
76637;BME280;65532;52.124;5.480;2024-02-26T10:23:51;100530.66;;;4.85;100.00
76637;BME280;65532;52.124;5.480;2024-02-26T10:26:21;100529.63;;;4.86;100.00
76637;BME280;65532;52.124;5.480;2024-02-26T10:28:48;100541.78;;;4.88;100.00
76637;BME280;65532;52.124;5.480;2024-02-26T10:31:20;100541.16;;;4.86;100.00
76637;BME280;65532;52.124;5.480;2024-02-26T10:33:47;100549.00;;;4.88;100.00
76637;BME280;65532;52.124;5.480;2024-02-26T10:36:14;100550.66;;;4.89;100.00
76637;BME280;65532;52.124;5.480;2024-02-26T10:38:41;100554.00;;;4.91;100.00
76637;BME280;65532;52.124;5.480;2024-02-26T10:41:13;100558.13;;;4.93;100.00
76637;BME280;65532;52.124;5.480;2024-02-26T10:43:39;100569.25;;;4.90;100.00
76637;BME280;65532;52.124;5.480;2024-02-26T10:46:07;100569.69;;;4.94;100.00
76637;BME280;65532;52.124;5.480;2024-02-26T10:48:35;100571.34;;;4.95;100.00
76637;BME280;65532;52.124;5.480;2024-02-26T10:51:02;100575.06;;;5.00;100.00
76637;BME280;65532;52.124;5.480;2024-02-26T10:53:29;100578.41;;;5.09;100.00
76637;BME280;65532;52.124;5.480;2024-02-26T10:56:01;100578.19;;;5.10;100.00
76637;BME280;65532;52.124;5.480;2024-02-26T10:58:28;100581.91;;;5.16;100.00
76637;BME280;65532;52.124;5.480;2024-02-26T11:00:56;100580.69;;;5.19;100.00
76637;BME280;65532;52.124;5.480;2024-02-26T11:03:24;100596.16;;;5.17;100.00
76637;BME280;65532;52.124;5.480;2024-02-26T11:05:51;100604.81;;;5.19;100.00
76637;BME280;65532;52.124;5.480;2024-02-26T11:08:19;100596.78;;;5.19;100.00
76637;BME280;65532;52.124;5.480;2024-02-26T11:10:52;100596.56;;;5.20;100.00
76637;BME280;65532;52.124;5.480;2024-02-26T11:13:21;100598.06;;;5.23;100.00
76637;BME280;65532;52.124;5.480;2024-02-26T11:15:48;100601.53;;;5.17;100.00
76637;BME280;65532;52.124;5.480;2024-02-26T11:18:15;100618.84;;;5.14;100.00
76637;BME280;65532;52.124;5.480;2024-02-26T11:20:44;100620.72;;;5.14;100.00
76637;BME280;65532;52.124;5.480;2024-02-26T11:23:11;100617.41;;;5.11;100.00
76637;BME280;65532;52.124;5.480;2024-02-26T11:25:38;100618.03;;;5.14;100.00
76637;BME280;65532;52.124;5.480;2024-02-26T11:28:10;100629.59;;;5.14;100.00
76637;BME280;65532;52.124;5.480;2024-02-26T11:30:41;100629.38;;;5.09;100.00
76637;BME280;65532;52.124;5.480;2024-02-26T11:33:10;100638.19;;;5.03;100.00
76637;BME280;65532;52.124;5.480;2024-02-26T11:35:37;100638.19;;;5.03;100.00
76637;BME280;65532;52.124;5.480;2024-02-26T11:38:05;100641.50;;;4.98;100.00
76637;BME280;65532;52.124;5.480;2024-02-26T11:40:37;100641.50;;;4.98;100.00
76637;BME280;65532;52.124;5.480;2024-02-26T11:43:07;100639.44;;;5.00;100.00
76637;BME280;65532;52.124;5.480;2024-02-26T11:48:24;100643.38;;;5.04;100.00
76637;BME280;65532;52.124;5.480;2024-02-26T11:50:53;100648.56;;;5.06;100.00
76637;BME280;65532;52.124;5.480;2024-02-26T11:53:22;100654.34;;;5.09;100.00
76637;BME280;65532;52.124;5.480;2024-02-26T12:01:47;100667.56;;;5.18;100.00
76637;BME280;65532;52.124;5.480;2024-02-26T12:04:17;100664.88;;;5.18;100.00
76637;BME280;65532;52.124;5.480;2024-02-26T12:06:46;100670.06;;;5.19;100.00
76637;BME280;65532;52.124;5.480;2024-02-26T12:09:39;100670.09;;;5.26;100.00
76637;BME280;65532;52.124;5.480;2024-02-26T12:12:08;100674.44;;;5.27;100.00
76637;BME280;65532;52.124;5.480;2024-02-26T12:14:40;100664.72;;;5.26;100.00
76637;BME280;65532;52.124;5.480;2024-02-26T12:17:19;100688.47;;;5.29;100.00
76637;BME280;65532;52.124;5.480;2024-02-26T12:19:46;100680.84;;;5.26;100.00
76637;BME280;65532;52.124;5.480;2024-02-26T12:22:13;100694.88;;;5.28;100.00
76637;BME280;65532;52.124;5.480;2024-02-26T12:24:42;100675.88;;;5.29;100.00
76637;BME280;65532;52.124;5.480;2024-02-26T12:27:08;100680.41;;;5.22;100.00
76637;BME280;65532;52.124;5.480;2024-02-26T12:29:35;100693.22;;;5.27;100.00
76637;BME280;65532;52.124;5.480;2024-02-26T12:32:03;100699.00;;;5.24;100.00
76637;BME280;65532;52.124;5.480;2024-02-26T12:34:33;100700.66;;;5.25;100.00
76637;BME280;65532;52.124;5.480;2024-02-26T12:37:00;100695.28;;;5.25;100.00
76637;BME280;65532;52.124;5.480;2024-02-26T12:39:27;100704.38;;;5.24;100.00
76637;BME280;65532;52.124;5.480;2024-02-26T12:41:55;100697.97;;;5.25;100.00
76637;BME280;65532;52.124;5.480;2024-02-26T12:44:25;100709.31;;;5.27;100.00
76637;BME280;65532;52.124;5.480;2024-02-26T12:47:00;100704.59;;;5.29;100.00
76637;BME280;65532;52.124;5.480;2024-02-26T12:49:27;100708.50;;;5.33;100.00
76637;BME280;65532;52.124;5.480;2024-02-26T12:51:54;100717.59;;;5.32;100.00
76637;BME280;65532;52.124;5.480;2024-02-26T12:54:29;100702.72;;;5.29;100.00
76637;BME280;65532;52.124;5.480;2024-02-26T12:56:56;100722.97;;;5.32;100.00
76637;BME280;65532;52.124;5.480;2024-02-26T12:59:23;100718.81;;;5.29;100.00